sensor_id;sensor_type;location;lat;lon;timestamp;pressure;altitude;pressure_sealevel;temperature;humidity
76054;BME280;64752;48.870;9.082;2024-03-02T00:01:50;96833.34;;;5.34;100.00
76054;BME280;64752;48.870;9.082;2024-03-02T00:04:15;96820.44;;;5.36;100.00
76054;BME280;64752;48.870;9.082;2024-03-02T00:06:42;96831.72;;;5.32;100.00
76054;BME280;64752;48.870;9.082;2024-03-02T00:09:11;96831.41;;;5.41;100.00
76054;BME280;64752;48.870;9.082;2024-03-02T00:11:37;96832.88;;;5.48;100.00
76054;BME280;64752;48.870;9.082;2024-03-02T00:14:03;96829.78;;;5.64;100.00
76054;BME280;64752;48.870;9.082;2024-03-02T00:16:32;96831.94;;;5.51;100.00
76054;BME280;64752;48.870;9.082;2024-03-02T00:19:05;96840.00;;;5.40;100.00
76054;BME280;64752;48.870;9.082;2024-03-02T00:21:31;96837.66;;;5.34;100.00
76054;BME280;64752;48.870;9.082;2024-03-02T00:23:57;96832.72;;;5.28;100.00
76054;BME280;64752;48.870;9.082;2024-03-02T00:26:23;96842.56;;;5.15;100.00
76054;BME280;64752;48.870;9.082;2024-03-02T00:28:48;96846.25;;;5.06;100.00
76054;BME280;64752;48.870;9.082;2024-03-02T00:31:15;96845.72;;;4.96;100.00
76054;BME280;64752;48.870;9.082;2024-03-02T00:33:47;96839.69;;;4.97;100.00
76054;BME280;64752;48.870;9.082;2024-03-02T00:36:21;96844.09;;;4.92;100.00
76054;BME280;64752;48.870;9.082;2024-03-02T00:38:51;96837.75;;;5.04;100.00
76054;BME280;64752;48.870;9.082;2024-03-02T00:41:32;96847.25;;;5.02;100.00
76054;BME280;64752;48.870;9.082;2024-03-02T00:43:59;96832.38;;;5.12;100.00
76054;BME280;64752;48.870;9.082;2024-03-02T00:46:27;96842.34;;;5.21;100.00
76054;BME280;64752;48.870;9.082;2024-03-02T00:48:56;96839.38;;;5.33;100.00
76054;BME280;64752;48.870;9.082;2024-03-02T00:51:23;96836.84;;;5.32;100.00
76054;BME280;64752;48.870;9.082;2024-03-02T00:53:50;96831.63;;;5.60;100.00
76054;BME280;64752;48.870;9.082;2024-03-02T00:56:16;96837.06;;;5.51;100.00
76054;BME280;64752;48.870;9.082;2024-03-02T00:58:42;96844.16;;;5.44;100.00
76054;BME280;64752;48.870;9.082;2024-03-02T01:01:07;96842.72;;;5.60;100.00
76054;BME280;64752;48.870;9.082;2024-03-02T01:03:33;96838.88;;;5.49;100.00
76054;BME280;64752;48.870;9.082;2024-03-02T01:05:59;96841.16;;;5.31;100.00
76054;BME280;64752;48.870;9.082;2024-03-02T01:08:24;96841.97;;;5.33;100.00
76054;BME280;64752;48.870;9.082;2024-03-02T01:10:51;96839.94;;;5.68;100.00
76054;BME280;64752;48.870;9.082;2024-03-02T01:13:16;96847.09;;;5.58;100.00
76054;BME280;64752;48.870;9.082;2024-03-02T01:15:41;96844.25;;;5.41;100.00
76054;BME280;64752;48.870;9.082;2024-03-02T01:18:07;96845.50;;;5.29;100.00
76054;BME280;64752;48.870;9.082;2024-03-02T01:20:33;96835.72;;;5.40;100.00
76054;BME280;64752;48.870;9.082;2024-03-02T01:22:58;96843.31;;;5.18;100.00
76054;BME280;64752;48.870;9.082;2024-03-02T01:25:23;96834.50;;;5.26;100.00
76054;BME280;64752;48.870;9.082;2024-03-02T01:27:50;96834.78;;;5.16;100.00
76054;BME280;64752;48.870;9.082;2024-03-02T01:30:15;96836.44;;;5.19;100.00
76054;BME280;64752;48.870;9.082;2024-03-02T01:32:41;96832.28;;;5.15;100.00
76054;BME280;64752;48.870;9.082;2024-03-02T01:35:06;96837.59;;;5.09;100.00
76054;BME280;64752;48.870;9.082;2024-03-02T01:37:32;96829.41;;;4.97;100.00
76054;BME280;64752;48.870;9.082;2024-03-02T01:39:58;96817.47;;;4.96;100.00
76054;BME280;64752;48.870;9.082;2024-03-02T01:42:23;96820.13;;;4.93;100.00
76054;BME280;64752;48.870;9.082;2024-03-02T01:44:49;96815.81;;;4.94;100.00
76054;BME280;64752;48.870;9.082;2024-03-02T01:47:14;96823.63;;;4.91;100.00
76054;BME280;64752;48.870;9.082;2024-03-02T01:49:39;96820.19;;;4.90;100.00
76054;BME280;64752;48.870;9.082;2024-03-02T01:52:06;96817.78;;;4.86;100.00
76054;BME280;64752;48.870;9.082;2024-03-02T01:54:32;96812.91;;;4.78;100.00
76054;BME280;64752;48.870;9.082;2024-03-02T01:56:58;96819.91;;;4.73;100.00
76054;BME280;64752;48.870;9.082;2024-03-02T01:59:23;96815.84;;;4.66;100.00
76054;BME280;64752;48.870;9.082;2024-03-02T02:01:48;96825.59;;;4.54;100.00
76054;BME280;64752;48.870;9.082;2024-03-02T02:04:14;96818.97;;;4.47;100.00
76054;BME280;64752;48.870;9.082;2024-03-02T02:06:39;96818.03;;;4.50;100.00
76054;BME280;64752;48.870;9.082;2024-03-02T02:09:05;96812.03;;;4.51;100.00
76054;BME280;64752;48.870;9.082;2024-03-02T02:11:33;96815.09;;;4.34;100.00
76054;BME280;64752;48.870;9.082;2024-03-02T02:13:58;96812.25;;;4.13;100.00
76054;BME280;64752;48.870;9.082;2024-03-02T02:16:24;96812.09;;;4.19;100.00
76054;BME280;64752;48.870;9.082;2024-03-02T02:18:49;96808.81;;;4.14;100.00
76054;BME280;64752;48.870;9.082;2024-03-02T02:21:14;96817.34;;;4.15;100.00
76054;BME280;64752;48.870;9.082;2024-03-02T02:23:39;96807.88;;;4.17;100.00
76054;BME280;64752;48.870;9.082;2024-03-02T02:26:05;96810.47;;;4.15;100.00
76054;BME280;64752;48.870;9.082;2024-03-02T02:28:30;96805.19;;;4.21;100.00
76054;BME280;64752;48.870;9.082;2024-03-02T02:30:56;96814.25;;;4.33;100.00
76054;BME280;64752;48.870;9.082;2024-03-02T02:33:21;96809.38;;;4.24;100.00
76054;BME280;64752;48.870;9.082;2024-03-02T02:35:47;96805.34;;;4.15;100.00
76054;BME280;64752;48.870;9.082;2024-03-02T02:38:12;96807.28;;;4.09;100.00
76054;BME280;64752;48.870;9.082;2024-03-02T02:40:37;96807.13;;;4.13;100.00
76054;BME280;64752;48.870;9.082;2024-03-02T02:43:03;96792.66;;;4.40;100.00
76054;BME280;64752;48.870;9.082;2024-03-02T02:45:28;96795.25;;;4.39;100.00
76054;BME280;64752;48.870;9.082;2024-03-02T02:47:54;96784.19;;;4.37;100.00
76054;BME280;64752;48.870;9.082;2024-03-02T02:50:19;96787.09;;;4.26;100.00
76054;BME280;64752;48.870;9.082;2024-03-02T02:52:45;96784.56;;;4.24;100.00
76054;BME280;64752;48.870;9.082;2024-03-02T02:55:12;96780.28;;;4.25;100.00
76054;BME280;64752;48.870;9.082;2024-03-02T02:57:39;96789.78;;;4.21;100.00
76054;BME280;64752;48.870;9.082;2024-03-02T03:00:07;96791.69;;;4.15;100.00
76054;BME280;64752;48.870;9.082;2024-03-02T03:02:38;96792.91;;;4.03;100.00
76054;BME280;64752;48.870;9.082;2024-03-02T03:05:05;96790.94;;;4.11;100.00
76054;BME280;64752;48.870;9.082;2024-03-02T03:07:31;96792.72;;;4.09;100.00
76054;BME280;64752;48.870;9.082;2024-03-02T03:09:57;96791.72;;;4.13;100.00
76054;BME280;64752;48.870;9.082;2024-03-02T03:12:23;96796.97;;;4.10;100.00
76054;BME280;64752;48.870;9.082;2024-03-02T03:14:48;96796.22;;;4.07;100.00
76054;BME280;64752;48.870;9.082;2024-03-02T03:17:13;96789.22;;;4.12;100.00
76054;BME280;64752;48.870;9.082;2024-03-02T03:19:39;96793.44;;;4.14;100.00
76054;BME280;64752;48.870;9.082;2024-03-02T03:22:04;96795.03;;;4.17;100.00
76054;BME280;64752;48.870;9.082;2024-03-02T03:24:29;96799.47;;;4.12;100.00
76054;BME280;64752;48.870;9.082;2024-03-02T03:26:55;96800.06;;;3.92;100.00
76054;BME280;64752;48.870;9.082;2024-03-02T03:29:20;96794.31;;;3.82;100.00
76054;BME280;64752;48.870;9.082;2024-03-02T03:31:45;96795.84;;;3.89;100.00
76054;BME280;64752;48.870;9.082;2024-03-02T03:34:11;96797.78;;;3.81;100.00
76054;BME280;64752;48.870;9.082;2024-03-02T03:36:41;96796.09;;;3.80;100.00
76054;BME280;64752;48.870;9.082;2024-03-02T03:39:06;96796.19;;;3.77;100.00
76054;BME280;64752;48.870;9.082;2024-03-02T03:41:31;96791.31;;;3.99;100.00
76054;BME280;64752;48.870;9.082;2024-03-02T03:43:57;96791.38;;;3.96;100.00
76054;BME280;64752;48.870;9.082;2024-03-02T03:46:22;96793.28;;;3.89;100.00
76054;BME280;64752;48.870;9.082;2024-03-02T03:48:47;96779.84;;;3.81;100.00
76054;BME280;64752;48.870;9.082;2024-03-02T03:51:13;96784.97;;;3.81;100.00
76054;BME280;64752;48.870;9.082;2024-03-02T03:53:38;96786.81;;;3.76;100.00
76054;BME280;64752;48.870;9.082;2024-03-02T03:56:04;96789.50;;;3.71;100.00
76054;BME280;64752;48.870;9.082;2024-03-02T03:58:29;96794.50;;;3.76;100.00
76054;BME280;64752;48.870;9.082;2024-03-02T04:00:55;96794.69;;;3.70;100.00
76054;BME280;64752;48.870;9.082;2024-03-02T04:03:20;96792.38;;;3.60;100.00
76054;BME280;64752;48.870;9.082;2024-03-02T04:05:45;96790.25;;;3.75;100.00
76054;BME280;64752;48.870;9.082;2024-03-02T04:08:11;96786.19;;;3.99;100.00
76054;BME280;64752;48.870;9.082;2024-03-02T04:10:36;96787.31;;;3.89;100.00
76054;BME280;64752;48.870;9.082;2024-03-02T04:13:02;96788.94;;;3.91;100.00
76054;BME280;64752;48.870;9.082;2024-03-02T04:15:27;96791.72;;;3.83;100.00
76054;BME280;64752;48.870;9.082;2024-03-02T04:17:53;96788.56;;;3.75;100.00
76054;BME280;64752;48.870;9.082;2024-03-02T04:20:18;96785.19;;;3.73;100.00
76054;BME280;64752;48.870;9.082;2024-03-02T04:22:43;96791.69;;;3.85;100.00
76054;BME280;64752;48.870;9.082;2024-03-02T04:25:09;96779.75;;;3.84;100.00
76054;BME280;64752;48.870;9.082;2024-03-02T04:27:35;96792.63;;;3.82;100.00
76054;BME280;64752;48.870;9.082;2024-03-02T04:30:00;96788.69;;;3.69;100.00
76054;BME280;64752;48.870;9.082;2024-03-02T04:32:28;96792.56;;;3.84;100.00
76054;BME280;64752;48.870;9.082;2024-03-02T04:34:54;96796.03;;;3.83;100.00
76054;BME280;64752;48.870;9.082;2024-03-02T04:37:19;96795.94;;;3.86;100.00
76054;BME280;64752;48.870;9.082;2024-03-02T04:39:45;96791.69;;;3.85;100.00
76054;BME280;64752;48.870;9.082;2024-03-02T04:42:10;96795.00;;;3.89;100.00
76054;BME280;64752;48.870;9.082;2024-03-02T04:44:35;96791.75;;;3.82;100.00
76054;BME280;64752;48.870;9.082;2024-03-02T04:47:03;96796.13;;;3.78;100.00
76054;BME280;64752;48.870;9.082;2024-03-02T04:49:28;96786.00;;;3.75;100.00
76054;BME280;64752;48.870;9.082;2024-03-02T04:51:53;96791.97;;;3.74;100.00
76054;BME280;64752;48.870;9.082;2024-03-02T04:54:19;96792.13;;;3.70;100.00
76054;BME280;64752;48.870;9.082;2024-03-02T04:56:44;96790.56;;;3.64;100.00
76054;BME280;64752;48.870;9.082;2024-03-02T04:59:14;96791.22;;;3.71;100.00
76054;BME280;64752;48.870;9.082;2024-03-02T05:01:39;96788.75;;;3.67;100.00
76054;BME280;64752;48.870;9.082;2024-03-02T05:04:05;96790.47;;;3.67;100.00
76054;BME280;64752;48.870;9.082;2024-03-02T05:06:30;96788.94;;;3.60;100.00
76054;BME280;64752;48.870;9.082;2024-03-02T05:08:55;96801.66;;;3.64;100.00
76054;BME280;64752;48.870;9.082;2024-03-02T05:11:21;96793.06;;;3.65;100.00
76054;BME280;64752;48.870;9.082;2024-03-02T05:14:05;96787.16;;;3.63;100.00
76054;BME280;64752;48.870;9.082;2024-03-02T05:16:37;96786.31;;;3.63;100.00
76054;BME280;64752;48.870;9.082;2024-03-02T05:19:03;96792.50;;;3.56;100.00
76054;BME280;64752;48.870;9.082;2024-03-02T05:21:31;96786.66;;;3.49;100.00
76054;BME280;64752;48.870;9.082;2024-03-02T05:23:56;96791.28;;;3.36;100.00
76054;BME280;64752;48.870;9.082;2024-03-02T05:26:22;96794.78;;;3.34;100.00
76054;BME280;64752;48.870;9.082;2024-03-02T05:28:47;96796.50;;;3.33;100.00
76054;BME280;64752;48.870;9.082;2024-03-02T05:31:15;96801.59;;;3.35;100.00
76054;BME280;64752;48.870;9.082;2024-03-02T05:33:40;96800.06;;;3.60;100.00
76054;BME280;64752;48.870;9.082;2024-03-02T05:36:06;96801.03;;;3.55;100.00
76054;BME280;64752;48.870;9.082;2024-03-02T05:38:34;96802.78;;;3.54;100.00
76054;BME280;64752;48.870;9.082;2024-03-02T05:41:02;96802.81;;;3.53;100.00
76054;BME280;64752;48.870;9.082;2024-03-02T05:43:30;96797.41;;;3.63;100.00
76054;BME280;64752;48.870;9.082;2024-03-02T05:45:56;96803.28;;;3.67;100.00
76054;BME280;64752;48.870;9.082;2024-03-02T05:48:21;96801.56;;;3.67;100.00
76054;BME280;64752;48.870;9.082;2024-03-02T05:50:46;96804.63;;;3.80;100.00
76054;BME280;64752;48.870;9.082;2024-03-02T05:53:11;96813.28;;;3.76;100.00
76054;BME280;64752;48.870;9.082;2024-03-02T05:55:37;96811.53;;;3.78;100.00
76054;BME280;64752;48.870;9.082;2024-03-02T05:58:02;96814.25;;;3.72;100.00
76054;BME280;64752;48.870;9.082;2024-03-02T06:00:31;96818.34;;;3.79;100.00
76054;BME280;64752;48.870;9.082;2024-03-02T06:02:56;96814.97;;;3.77;100.00
76054;BME280;64752;48.870;9.082;2024-03-02T06:05:21;96817.88;;;3.65;100.00
76054;BME280;64752;48.870;9.082;2024-03-02T06:07:47;96810.25;;;3.62;100.00
76054;BME280;64752;48.870;9.082;2024-03-02T06:10:12;96806.09;;;3.58;100.00
76054;BME280;64752;48.870;9.082;2024-03-02T06:12:38;96806.34;;;3.80;100.00
76054;BME280;64752;48.870;9.082;2024-03-02T06:15:03;96801.66;;;3.64;100.00
76054;BME280;64752;48.870;9.082;2024-03-02T06:17:29;96803.97;;;3.74;100.00
76054;BME280;64752;48.870;9.082;2024-03-02T06:19:54;96802.78;;;3.85;100.00
76054;BME280;64752;48.870;9.082;2024-03-02T06:22:20;96798.88;;;4.03;100.00
76054;BME280;64752;48.870;9.082;2024-03-02T06:24:46;96801.03;;;4.17;100.00
76054;BME280;64752;48.870;9.082;2024-03-02T06:27:11;96803.53;;;4.19;100.00
76054;BME280;64752;48.870;9.082;2024-03-02T06:29:37;96807.28;;;4.37;100.00
76054;BME280;64752;48.870;9.082;2024-03-02T06:32:02;96817.28;;;4.46;100.00
76054;BME280;64752;48.870;9.082;2024-03-02T06:34:28;96816.13;;;4.56;100.00
76054;BME280;64752;48.870;9.082;2024-03-02T06:36:53;96815.06;;;4.63;100.00
76054;BME280;64752;48.870;9.082;2024-03-02T06:39:19;96823.50;;;4.67;100.00
76054;BME280;64752;48.870;9.082;2024-03-02T06:41:44;96820.78;;;4.72;100.00
76054;BME280;64752;48.870;9.082;2024-03-02T06:44:12;96825.63;;;4.81;100.00
76054;BME280;64752;48.870;9.082;2024-03-02T06:46:37;96834.91;;;4.85;100.00
76054;BME280;64752;48.870;9.082;2024-03-02T06:49:03;96830.16;;;5.01;100.00
76054;BME280;64752;48.870;9.082;2024-03-02T06:51:29;96831.63;;;5.08;100.00
76054;BME280;64752;48.870;9.082;2024-03-02T06:53:57;96832.38;;;5.12;100.00
76054;BME280;64752;48.870;9.082;2024-03-02T06:56:22;96828.50;;;5.25;100.00
76054;BME280;64752;48.870;9.082;2024-03-02T06:58:48;96826.00;;;5.49;100.00
76054;BME280;64752;48.870;9.082;2024-03-02T07:01:13;96827.56;;;5.53;100.00
76054;BME280;64752;48.870;9.082;2024-03-02T07:03:39;96829.00;;;5.62;100.00
76054;BME280;64752;48.870;9.082;2024-03-02T07:06:05;96834.59;;;5.73;100.00
76054;BME280;64752;48.870;9.082;2024-03-02T07:08:30;96826.06;;;5.97;100.00
76054;BME280;64752;48.870;9.082;2024-03-02T07:10:55;96831.72;;;6.31;100.00
76054;BME280;64752;48.870;9.082;2024-03-02T07:13:22;96838.44;;;7.23;100.00
76054;BME280;64752;48.870;9.082;2024-03-02T07:15:47;96825.00;;;7.97;100.00
76054;BME280;64752;48.870;9.082;2024-03-02T07:18:44;96826.69;;;8.57;96.79
76054;BME280;64752;48.870;9.082;2024-03-02T07:21:16;96833.19;;;8.46;96.63
76054;BME280;64752;48.870;9.082;2024-03-02T07:23:41;96833.31;;;8.43;95.77
76054;BME280;64752;48.870;9.082;2024-03-02T07:26:07;96836.22;;;8.36;96.92
76054;BME280;64752;48.870;9.082;2024-03-02T07:28:32;96836.69;;;8.06;97.94
76054;BME280;64752;48.870;9.082;2024-03-02T07:31:02;96843.09;;;7.77;100.00
76054;BME280;64752;48.870;9.082;2024-03-02T07:33:30;96836.66;;;7.46;100.00
76054;BME280;64752;48.870;9.082;2024-03-02T07:35:56;96833.88;;;7.30;100.00
76054;BME280;64752;48.870;9.082;2024-03-02T07:38:21;96835.81;;;7.25;100.00
76054;BME280;64752;48.870;9.082;2024-03-02T07:40:48;96834.69;;;7.10;100.00
76054;BME280;64752;48.870;9.082;2024-03-02T07:43:17;96834.97;;;7.24;100.00
76054;BME280;64752;48.870;9.082;2024-03-02T07:45:43;96837.75;;;6.98;100.00
76054;BME280;64752;48.870;9.082;2024-03-02T07:48:08;96843.97;;;7.14;100.00
76054;BME280;64752;48.870;9.082;2024-03-02T07:50:34;96847.16;;;7.21;100.00
76054;BME280;64752;48.870;9.082;2024-03-02T07:53:01;96840.38;;;7.39;100.00
76054;BME280;64752;48.870;9.082;2024-03-02T07:55:26;96841.38;;;7.57;100.00
76054;BME280;64752;48.870;9.082;2024-03-02T07:57:51;96841.69;;;7.69;100.00
76054;BME280;64752;48.870;9.082;2024-03-02T08:00:17;96846.59;;;7.76;100.00
76054;BME280;64752;48.870;9.082;2024-03-02T08:02:42;96849.09;;;7.77;100.00
76054;BME280;64752;48.870;9.082;2024-03-02T08:05:08;96846.22;;;7.85;100.00
76054;BME280;64752;48.870;9.082;2024-03-02T08:07:34;96847.75;;;7.89;100.00
76054;BME280;64752;48.870;9.082;2024-03-02T08:10:00;96848.41;;;7.94;100.00
76054;BME280;64752;48.870;9.082;2024-03-02T08:12:25;96844.50;;;8.04;99.55
76054;BME280;64752;48.870;9.082;2024-03-02T08:14:50;96848.25;;;8.75;99.14
76054;BME280;64752;48.870;9.082;2024-03-02T08:17:16;96842.97;;;9.67;92.88
76054;BME280;64752;48.870;9.082;2024-03-02T08:19:42;96835.69;;;10.41;89.20
76054;BME280;64752;48.870;9.082;2024-03-02T08:22:07;96831.84;;;10.80;83.50
76054;BME280;64752;48.870;9.082;2024-03-02T08:24:33;96830.94;;;10.97;80.89
76054;BME280;64752;48.870;9.082;2024-03-02T08:26:59;96829.16;;;11.44;79.20
76054;BME280;64752;48.870;9.082;2024-03-02T08:29:25;96826.38;;;13.33;73.81
76054;BME280;64752;48.870;9.082;2024-03-02T08:31:50;96830.81;;;13.96;69.40
76054;BME280;64752;48.870;9.082;2024-03-02T08:34:16;96824.13;;;14.93;66.53
76054;BME280;64752;48.870;9.082;2024-03-02T08:36:41;96822.50;;;16.10;59.90
76054;BME280;64752;48.870;9.082;2024-03-02T08:39:08;96825.03;;;16.34;59.79
76054;BME280;64752;48.870;9.082;2024-03-02T08:41:41;96820.22;;;15.94;58.36
76054;BME280;64752;48.870;9.082;2024-03-02T08:44:07;96820.13;;;16.74;56.06
76054;BME280;64752;48.870;9.082;2024-03-02T08:46:32;96815.00;;;16.39;54.30
76054;BME280;64752;48.870;9.082;2024-03-02T08:48:58;96802.50;;;15.51;56.17
76054;BME280;64752;48.870;9.082;2024-03-02T08:51:23;96818.34;;;16.64;54.82
76054;BME280;64752;48.870;9.082;2024-03-02T08:53:50;96822.63;;;16.53;54.36
76054;BME280;64752;48.870;9.082;2024-03-02T08:56:16;96819.88;;;17.75;51.26
76054;BME280;64752;48.870;9.082;2024-03-02T08:58:43;96817.63;;;17.28;52.12
76054;BME280;64752;48.870;9.082;2024-03-02T09:01:08;96814.38;;;19.01;48.18
76054;BME280;64752;48.870;9.082;2024-03-02T09:03:34;96820.06;;;19.94;45.07
76054;BME280;64752;48.870;9.082;2024-03-02T09:06:00;96817.78;;;20.09;45.05
76054;BME280;64752;48.870;9.082;2024-03-02T09:08:26;96821.19;;;20.76;42.33
76054;BME280;64752;48.870;9.082;2024-03-02T09:10:51;96819.66;;;21.37;41.49
76054;BME280;64752;48.870;9.082;2024-03-02T09:13:17;96816.50;;;20.60;42.36
76054;BME280;64752;48.870;9.082;2024-03-02T09:15:42;96823.16;;;20.27;42.16
76054;BME280;64752;48.870;9.082;2024-03-02T09:18:09;96822.31;;;20.73;41.70
76054;BME280;64752;48.870;9.082;2024-03-02T09:20:35;96817.63;;;19.73;42.76
76054;BME280;64752;48.870;9.082;2024-03-02T09:23:00;96815.81;;;19.54;43.75
76054;BME280;64752;48.870;9.082;2024-03-02T09:25:25;96805.50;;;20.09;43.16
76054;BME280;64752;48.870;9.082;2024-03-02T09:27:51;96809.41;;;20.98;41.69
76054;BME280;64752;48.870;9.082;2024-03-02T09:30:16;96809.31;;;21.08;41.09
76054;BME280;64752;48.870;9.082;2024-03-02T09:32:42;96800.69;;;21.69;39.26
76054;BME280;64752;48.870;9.082;2024-03-02T09:35:07;96806.41;;;21.29;39.61
76054;BME280;64752;48.870;9.082;2024-03-02T09:37:34;96797.38;;;22.20;38.91
76054;BME280;64752;48.870;9.082;2024-03-02T09:39:59;96798.13;;;23.32;36.43
76054;BME280;64752;48.870;9.082;2024-03-02T09:42:25;96797.66;;;23.53;35.81
76054;BME280;64752;48.870;9.082;2024-03-02T09:44:51;96799.28;;;23.37;35.50
76054;BME280;64752;48.870;9.082;2024-03-02T09:47:17;96796.38;;;21.94;36.87
76054;BME280;64752;48.870;9.082;2024-03-02T09:49:42;96793.22;;;24.42;34.41
76054;BME280;64752;48.870;9.082;2024-03-02T09:52:10;96786.13;;;22.95;35.77
76054;BME280;64752;48.870;9.082;2024-03-02T09:54:35;96782.03;;;24.71;33.47
76054;BME280;64752;48.870;9.082;2024-03-02T09:57:02;96785.19;;;23.12;36.80
76054;BME280;64752;48.870;9.082;2024-03-02T09:59:27;96786.75;;;23.64;34.57
76054;BME280;64752;48.870;9.082;2024-03-02T10:02:03;96783.69;;;22.59;36.78
76054;BME280;64752;48.870;9.082;2024-03-02T10:04:32;96781.75;;;23.69;34.89
76054;BME280;64752;48.870;9.082;2024-03-02T10:09:39;96773.41;;;22.39;35.56
76054;BME280;64752;48.870;9.082;2024-03-02T10:12:05;96769.22;;;22.71;35.49
76054;BME280;64752;48.870;9.082;2024-03-02T10:14:31;96778.28;;;23.77;33.77
76054;BME280;64752;48.870;9.082;2024-03-02T10:17:05;96777.78;;;23.48;33.53
76054;BME280;64752;48.870;9.082;2024-03-02T10:19:31;96769.31;;;24.11;33.42
76054;BME280;64752;48.870;9.082;2024-03-02T10:21:58;96772.63;;;24.60;32.91
76054;BME280;64752;48.870;9.082;2024-03-02T10:24:24;96768.19;;;23.89;33.72
76054;BME280;64752;48.870;9.082;2024-03-02T10:26:51;96762.53;;;24.08;33.16
76054;BME280;64752;48.870;9.082;2024-03-02T10:29:16;96766.88;;;23.60;33.76
76054;BME280;64752;48.870;9.082;2024-03-02T10:31:44;96758.72;;;24.11;33.37
76054;BME280;64752;48.870;9.082;2024-03-02T10:34:11;96754.56;;;21.02;36.97
76054;BME280;64752;48.870;9.082;2024-03-02T10:36:37;96754.88;;;22.31;35.59
76054;BME280;64752;48.870;9.082;2024-03-02T10:39:06;96761.03;;;22.99;33.94
76054;BME280;64752;48.870;9.082;2024-03-02T10:41:34;96743.56;;;23.22;34.20
76054;BME280;64752;48.870;9.082;2024-03-02T10:44:07;96749.28;;;22.34;35.78
76054;BME280;64752;48.870;9.082;2024-03-02T10:46:36;96749.03;;;23.13;34.26
76054;BME280;64752;48.870;9.082;2024-03-02T10:49:03;96752.47;;;22.20;36.34
76054;BME280;64752;48.870;9.082;2024-03-02T10:51:33;96734.47;;;21.18;37.45
76054;BME280;64752;48.870;9.082;2024-03-02T10:53:59;96733.81;;;23.31;34.19
76054;BME280;64752;48.870;9.082;2024-03-02T10:56:38;96726.03;;;23.05;35.35
76054;BME280;64752;48.870;9.082;2024-03-02T10:59:33;96724.31;;;23.94;33.95
76054;BME280;64752;48.870;9.082;2024-03-02T11:02:00;96727.13;;;22.78;34.89
76054;BME280;64752;48.870;9.082;2024-03-02T11:04:27;96725.97;;;21.95;36.25
76054;BME280;64752;48.870;9.082;2024-03-02T11:06:58;96717.06;;;22.30;36.12
76054;BME280;64752;48.870;9.082;2024-03-02T11:09:26;96727.34;;;21.55;36.41
76054;BME280;64752;48.870;9.082;2024-03-02T11:12:31;96724.28;;;21.42;36.92
76054;BME280;64752;48.870;9.082;2024-03-02T11:15:04;96726.84;;;23.71;34.54
76054;BME280;64752;48.870;9.082;2024-03-02T11:17:33;96715.38;;;22.72;34.64
76054;BME280;64752;48.870;9.082;2024-03-02T11:19:59;96707.44;;;21.43;37.49
76054;BME280;64752;48.870;9.082;2024-03-02T11:22:25;96707.38;;;21.08;38.20
76054;BME280;64752;48.870;9.082;2024-03-02T11:24:52;96695.81;;;21.45;39.26
76054;BME280;64752;48.870;9.082;2024-03-02T11:33:06;96688.63;;;22.91;36.99
76054;BME280;64752;48.870;9.082;2024-03-02T11:35:33;96686.19;;;23.47;36.08
76054;BME280;64752;48.870;9.082;2024-03-02T11:37:58;96674.50;;;22.07;37.63
76054;BME280;64752;48.870;9.082;2024-03-02T11:40:28;96671.66;;;20.78;39.32
76054;BME280;64752;48.870;9.082;2024-03-02T11:42:53;96668.78;;;22.12;37.91
76054;BME280;64752;48.870;9.082;2024-03-02T11:45:23;96668.69;;;21.87;38.76
76054;BME280;64752;48.870;9.082;2024-03-02T11:47:58;96662.63;;;22.03;38.10
76054;BME280;64752;48.870;9.082;2024-03-02T11:50:33;96663.72;;;21.84;38.05
76054;BME280;64752;48.870;9.082;2024-03-02T11:52:59;96650.88;;;21.63;38.17
76054;BME280;64752;48.870;9.082;2024-03-02T11:55:25;96652.63;;;22.23;37.69
76054;BME280;64752;48.870;9.082;2024-03-02T11:57:54;96648.00;;;21.48;37.32
76054;BME280;64752;48.870;9.082;2024-03-02T12:00:20;96641.75;;;19.31;42.67
76054;BME280;64752;48.870;9.082;2024-03-02T12:02:46;96631.25;;;20.69;39.44
76054;BME280;64752;48.870;9.082;2024-03-02T12:05:16;96637.69;;;21.63;38.75
76054;BME280;64752;48.870;9.082;2024-03-02T12:07:42;96629.88;;;21.01;38.86
76054;BME280;64752;48.870;9.082;2024-03-02T12:10:08;96628.63;;;20.06;41.06
76054;BME280;64752;48.870;9.082;2024-03-02T12:12:33;96624.34;;;20.58;38.28
76054;BME280;64752;48.870;9.082;2024-03-02T12:14:59;96620.47;;;21.77;36.36
76054;BME280;64752;48.870;9.082;2024-03-02T12:17:26;96620.84;;;22.49;35.24
76054;BME280;64752;48.870;9.082;2024-03-02T12:19:51;96623.56;;;23.23;33.54
76054;BME280;64752;48.870;9.082;2024-03-02T12:22:18;96623.19;;;23.26;33.53
76054;BME280;64752;48.870;9.082;2024-03-02T12:24:44;96619.06;;;22.50;33.56
76054;BME280;64752;48.870;9.082;2024-03-02T12:27:14;96616.28;;;22.76;34.71
76054;BME280;64752;48.870;9.082;2024-03-02T12:29:40;96619.78;;;24.13;32.25
76054;BME280;64752;48.870;9.082;2024-03-02T12:32:06;96620.72;;;24.29;31.34
76054;BME280;64752;48.870;9.082;2024-03-02T12:34:32;96613.03;;;24.11;31.77
76054;BME280;64752;48.870;9.082;2024-03-02T12:36:58;96607.13;;;23.53;32.53
76054;BME280;64752;48.870;9.082;2024-03-02T12:39:23;96605.03;;;23.88;31.60
76054;BME280;64752;48.870;9.082;2024-03-02T12:41:49;96594.78;;;21.87;34.25
76054;BME280;64752;48.870;9.082;2024-03-02T12:44:19;96597.47;;;23.68;32.53
76054;BME280;64752;48.870;9.082;2024-03-02T12:46:45;96604.75;;;24.14;32.08
76054;BME280;64752;48.870;9.082;2024-03-02T12:49:15;96594.34;;;24.67;31.06
76054;BME280;64752;48.870;9.082;2024-03-02T12:51:46;96596.91;;;24.20;30.81
76054;BME280;64752;48.870;9.082;2024-03-02T12:54:16;96593.63;;;23.15;32.68
76054;BME280;64752;48.870;9.082;2024-03-02T12:56:42;96596.41;;;23.94;31.87
76054;BME280;64752;48.870;9.082;2024-03-02T12:59:18;96588.34;;;23.71;31.29
76054;BME280;64752;48.870;9.082;2024-03-02T13:01:54;96592.63;;;23.80;31.32
76054;BME280;64752;48.870;9.082;2024-03-02T13:04:26;96584.72;;;24.89;29.77
76054;BME280;64752;48.870;9.082;2024-03-02T13:06:52;96583.34;;;24.70;30.49